sensor_id;sensor_type;location;lat;lon;timestamp;P1;durP1;ratioP1;P2;durP2;ratioP2
11222;SDS011;5668;52.012;8.724;2023-08-07T00:02:01;4.47;;;1.70;;
11222;SDS011;5668;52.012;8.724;2023-08-07T00:04:29;2.72;;;1.35;;
11222;SDS011;5668;52.012;8.724;2023-08-07T00:06:56;4.00;;;1.40;;
11222;SDS011;5668;52.012;8.724;2023-08-07T00:09:23;3.60;;;1.63;;
11222;SDS011;5668;52.012;8.724;2023-08-07T00:11:50;3.50;;;1.58;;
11222;SDS011;5668;52.012;8.724;2023-08-07T00:14:19;4.03;;;1.65;;
11222;SDS011;5668;52.012;8.724;2023-08-07T00:16:46;2.85;;;1.58;;
11222;SDS011;5668;52.012;8.724;2023-08-07T00:19:13;2.33;;;1.40;;
11222;SDS011;5668;52.012;8.724;2023-08-07T00:21:41;3.90;;;1.48;;
11222;SDS011;5668;52.012;8.724;2023-08-07T00:24:08;2.78;;;1.40;;
11222;SDS011;5668;52.012;8.724;2023-08-07T00:26:35;4.95;;;1.70;;
11222;SDS011;5668;52.012;8.724;2023-08-07T00:29:02;2.95;;;1.58;;
11222;SDS011;5668;52.012;8.724;2023-08-07T00:31:31;2.65;;;1.38;;
11222;SDS011;5668;52.012;8.724;2023-08-07T00:33:58;5.43;;;1.70;;
11222;SDS011;5668;52.012;8.724;2023-08-07T00:36:27;4.07;;;1.50;;
11222;SDS011;5668;52.012;8.724;2023-08-07T00:38:54;4.88;;;1.48;;
11222;SDS011;5668;52.012;8.724;2023-08-07T00:41:21;4.55;;;1.85;;
11222;SDS011;5668;52.012;8.724;2023-08-07T00:43:49;4.20;;;1.33;;
11222;SDS011;5668;52.012;8.724;2023-08-07T00:46:16;3.53;;;1.58;;
11222;SDS011;5668;52.012;8.724;2023-08-07T00:48:45;1.83;;;1.33;;
11222;SDS011;5668;52.012;8.724;2023-08-07T00:51:12;4.65;;;1.55;;
11222;SDS011;5668;52.012;8.724;2023-08-07T00:53:41;7.57;;;1.92;;
11222;SDS011;5668;52.012;8.724;2023-08-07T00:56:09;3.42;;;1.58;;
11222;SDS011;5668;52.012;8.724;2023-08-07T00:58:37;5.70;;;1.50;;
11222;SDS011;5668;52.012;8.724;2023-08-07T01:01:04;5.72;;;1.85;;
11222;SDS011;5668;52.012;8.724;2023-08-07T01:03:32;3.50;;;1.55;;
11222;SDS011;5668;52.012;8.724;2023-08-07T01:06:01;3.42;;;1.70;;
11222;SDS011;5668;52.012;8.724;2023-08-07T01:08:28;3.45;;;1.70;;
11222;SDS011;5668;52.012;8.724;2023-08-07T01:11:01;3.33;;;1.60;;
11222;SDS011;5668;52.012;8.724;2023-08-07T01:13:37;5.10;;;1.80;;
11222;SDS011;5668;52.012;8.724;2023-08-07T01:16:13;3.05;;;1.77;;
11222;SDS011;5668;52.012;8.724;2023-08-07T01:18:48;5.78;;;1.63;;
11222;SDS011;5668;52.012;8.724;2023-08-07T01:21:18;3.63;;;1.58;;
11222;SDS011;5668;52.012;8.724;2023-08-07T01:23:47;4.72;;;1.50;;
11222;SDS011;5668;52.012;8.724;2023-08-07T01:26:15;5.60;;;1.45;;
11222;SDS011;5668;52.012;8.724;2023-08-07T01:28:46;4.30;;;1.77;;
11222;SDS011;5668;52.012;8.724;2023-08-07T01:31:16;3.50;;;1.30;;
11222;SDS011;5668;52.012;8.724;2023-08-07T01:33:50;6.32;;;1.65;;
11222;SDS011;5668;52.012;8.724;2023-08-07T01:36:24;3.03;;;1.38;;
11222;SDS011;5668;52.012;8.724;2023-08-07T01:38:55;3.15;;;1.40;;
11222;SDS011;5668;52.012;8.724;2023-08-07T01:41:23;2.08;;;1.50;;
11222;SDS011;5668;52.012;8.724;2023-08-07T01:43:51;2.95;;;1.48;;
11222;SDS011;5668;52.012;8.724;2023-08-07T01:46:19;3.72;;;1.75;;
11222;SDS011;5668;52.012;8.724;2023-08-07T01:48:47;5.05;;;1.70;;
11222;SDS011;5668;52.012;8.724;2023-08-07T01:51:14;4.50;;;1.88;;
11222;SDS011;5668;52.012;8.724;2023-08-07T01:53:41;4.90;;;2.00;;
11222;SDS011;5668;52.012;8.724;2023-08-07T01:56:10;3.83;;;2.15;;
11222;SDS011;5668;52.012;8.724;2023-08-07T01:58:37;4.07;;;2.17;;
11222;SDS011;5668;52.012;8.724;2023-08-07T02:01:04;3.03;;;2.05;;
11222;SDS011;5668;52.012;8.724;2023-08-07T02:03:31;5.57;;;2.10;;
11222;SDS011;5668;52.012;8.724;2023-08-07T02:05:58;5.93;;;2.55;;
11222;SDS011;5668;52.012;8.724;2023-08-07T02:08:27;6.30;;;2.53;;
11222;SDS011;5668;52.012;8.724;2023-08-07T02:10:54;4.43;;;2.10;;
11222;SDS011;5668;52.012;8.724;2023-08-07T02:13:22;5.00;;;2.10;;
11222;SDS011;5668;52.012;8.724;2023-08-07T02:15:50;4.55;;;2.25;;
11222;SDS011;5668;52.012;8.724;2023-08-07T02:18:17;4.72;;;2.25;;
11222;SDS011;5668;52.012;8.724;2023-08-07T02:20:44;4.60;;;2.35;;
11222;SDS011;5668;52.012;8.724;2023-08-07T02:23:12;3.40;;;2.30;;
11222;SDS011;5668;52.012;8.724;2023-08-07T02:25:39;5.88;;;2.00;;
11222;SDS011;5668;52.012;8.724;2023-08-07T02:28:06;4.50;;;2.30;;
11222;SDS011;5668;52.012;8.724;2023-08-07T02:30:34;5.72;;;1.95;;
11222;SDS011;5668;52.012;8.724;2023-08-07T02:33:02;3.55;;;2.42;;
11222;SDS011;5668;52.012;8.724;2023-08-07T02:35:29;4.15;;;2.17;;
11222;SDS011;5668;52.012;8.724;2023-08-07T02:37:56;5.50;;;2.05;;
11222;SDS011;5668;52.012;8.724;2023-08-07T02:40:23;3.78;;;2.33;;
11222;SDS011;5668;52.012;8.724;2023-08-07T02:42:50;4.20;;;2.30;;
11222;SDS011;5668;52.012;8.724;2023-08-07T02:45:18;5.40;;;2.30;;
11222;SDS011;5668;52.012;8.724;2023-08-07T02:47:46;3.50;;;2.40;;
11222;SDS011;5668;52.012;8.724;2023-08-07T02:50:14;5.25;;;2.50;;
11222;SDS011;5668;52.012;8.724;2023-08-07T02:52:42;4.25;;;2.13;;
11222;SDS011;5668;52.012;8.724;2023-08-07T02:55:09;8.10;;;2.40;;
11222;SDS011;5668;52.012;8.724;2023-08-07T02:57:36;6.72;;;2.47;;
11222;SDS011;5668;52.012;8.724;2023-08-07T03:05:17;3.90;;;2.35;;
11222;SDS011;5668;52.012;8.724;2023-08-07T03:07:44;4.28;;;2.70;;
11222;SDS011;5668;52.012;8.724;2023-08-07T03:10:12;5.45;;;2.58;;
11222;SDS011;5668;52.012;8.724;2023-08-07T03:12:39;4.75;;;2.50;;
11222;SDS011;5668;52.012;8.724;2023-08-07T03:15:07;4.75;;;2.58;;
11222;SDS011;5668;52.012;8.724;2023-08-07T03:17:34;4.38;;;2.45;;
11222;SDS011;5668;52.012;8.724;2023-08-07T03:20:02;3.35;;;2.40;;
11222;SDS011;5668;52.012;8.724;2023-08-07T03:22:31;4.57;;;2.70;;
11222;SDS011;5668;52.012;8.724;2023-08-07T03:24:59;4.53;;;2.22;;
11222;SDS011;5668;52.012;8.724;2023-08-07T03:27:26;4.95;;;2.78;;
11222;SDS011;5668;52.012;8.724;2023-08-07T03:29:53;4.32;;;2.17;;
11222;SDS011;5668;52.012;8.724;2023-08-07T03:32:21;4.95;;;2.95;;
11222;SDS011;5668;52.012;8.724;2023-08-07T03:34:48;4.20;;;2.70;;
11222;SDS011;5668;52.012;8.724;2023-08-07T03:37:15;7.13;;;2.92;;
11222;SDS011;5668;52.012;8.724;2023-08-07T03:39:43;3.47;;;2.90;;
11222;SDS011;5668;52.012;8.724;2023-08-07T03:42:13;5.38;;;2.97;;
11222;SDS011;5668;52.012;8.724;2023-08-07T03:44:40;7.03;;;3.17;;
11222;SDS011;5668;52.012;8.724;2023-08-07T03:47:08;5.50;;;2.78;;
11222;SDS011;5668;52.012;8.724;2023-08-07T03:49:35;5.03;;;3.50;;
11222;SDS011;5668;52.012;8.724;2023-08-07T03:52:02;3.75;;;3.08;;
11222;SDS011;5668;52.012;8.724;2023-08-07T03:54:30;5.85;;;3.90;;
11222;SDS011;5668;52.012;8.724;2023-08-07T03:56:58;6.88;;;3.35;;
11222;SDS011;5668;52.012;8.724;2023-08-07T03:59:26;4.45;;;3.58;;
11222;SDS011;5668;52.012;8.724;2023-08-07T04:01:53;6.97;;;3.40;;
11222;SDS011;5668;52.012;8.724;2023-08-07T04:04:20;4.80;;;4.07;;
11222;SDS011;5668;52.012;8.724;2023-08-07T04:06:47;4.70;;;3.83;;
11222;SDS011;5668;52.012;8.724;2023-08-07T04:09:15;6.28;;;3.80;;
11222;SDS011;5668;52.012;8.724;2023-08-07T04:11:42;7.15;;;3.97;;
11222;SDS011;5668;52.012;8.724;2023-08-07T04:14:11;4.60;;;3.85;;
11222;SDS011;5668;52.012;8.724;2023-08-07T04:16:38;5.75;;;3.95;;
11222;SDS011;5668;52.012;8.724;2023-08-07T04:19:05;6.20;;;4.03;;
11222;SDS011;5668;52.012;8.724;2023-08-07T04:21:33;5.82;;;4.05;;
11222;SDS011;5668;52.012;8.724;2023-08-07T04:24:00;8.68;;;3.75;;
11222;SDS011;5668;52.012;8.724;2023-08-07T04:26:33;4.43;;;3.63;;
11222;SDS011;5668;52.012;8.724;2023-08-07T04:29:00;5.13;;;3.45;;
11222;SDS011;5668;52.012;8.724;2023-08-07T04:31:28;7.55;;;4.22;;
11222;SDS011;5668;52.012;8.724;2023-08-07T04:33:56;5.13;;;4.47;;
11222;SDS011;5668;52.012;8.724;2023-08-07T04:36:23;4.70;;;4.15;;
11222;SDS011;5668;52.012;8.724;2023-08-07T04:38:51;4.47;;;3.95;;
11222;SDS011;5668;52.012;8.724;2023-08-07T04:41:20;5.22;;;3.92;;
11222;SDS011;5668;52.012;8.724;2023-08-07T04:43:47;4.32;;;3.58;;
11222;SDS011;5668;52.012;8.724;2023-08-07T04:46:14;7.00;;;4.00;;
11222;SDS011;5668;52.012;8.724;2023-08-07T04:48:43;4.40;;;3.85;;
11222;SDS011;5668;52.012;8.724;2023-08-07T04:51:10;5.38;;;4.28;;
11222;SDS011;5668;52.012;8.724;2023-08-07T04:53:38;4.63;;;3.63;;
11222;SDS011;5668;52.012;8.724;2023-08-07T04:56:05;4.78;;;3.65;;
11222;SDS011;5668;52.012;8.724;2023-08-07T04:58:32;4.72;;;3.70;;
11222;SDS011;5668;52.012;8.724;2023-08-07T05:00:59;4.93;;;3.40;;
11222;SDS011;5668;52.012;8.724;2023-08-07T05:03:27;4.47;;;3.22;;
11222;SDS011;5668;52.012;8.724;2023-08-07T05:06:00;3.95;;;3.05;;
11222;SDS011;5668;52.012;8.724;2023-08-07T05:08:27;5.20;;;3.50;;
11222;SDS011;5668;52.012;8.724;2023-08-07T05:10:55;3.70;;;3.00;;
11222;SDS011;5668;52.012;8.724;2023-08-07T05:13:22;4.00;;;3.13;;
11222;SDS011;5668;52.012;8.724;2023-08-07T05:15:49;3.28;;;2.72;;
11222;SDS011;5668;52.012;8.724;2023-08-07T05:18:16;5.20;;;3.20;;
11222;SDS011;5668;52.012;8.724;2023-08-07T05:20:43;3.10;;;2.80;;
11222;SDS011;5668;52.012;8.724;2023-08-07T05:23:12;3.97;;;3.30;;
11222;SDS011;5668;52.012;8.724;2023-08-07T05:25:39;3.80;;;2.85;;
11222;SDS011;5668;52.012;8.724;2023-08-07T05:28:06;3.60;;;3.28;;
11222;SDS011;5668;52.012;8.724;2023-08-07T05:30:34;3.83;;;2.97;;
11222;SDS011;5668;52.012;8.724;2023-08-07T05:33:01;3.00;;;2.70;;
11222;SDS011;5668;52.012;8.724;2023-08-07T05:35:28;3.38;;;2.65;;
11222;SDS011;5668;52.012;8.724;2023-08-07T05:37:56;3.15;;;2.90;;
11222;SDS011;5668;52.012;8.724;2023-08-07T05:40:24;6.47;;;3.15;;
11222;SDS011;5668;52.012;8.724;2023-08-07T05:42:51;3.75;;;2.75;;
11222;SDS011;5668;52.012;8.724;2023-08-07T05:45:19;5.13;;;2.50;;
11222;SDS011;5668;52.012;8.724;2023-08-07T05:47:46;4.50;;;2.75;;
11222;SDS011;5668;52.012;8.724;2023-08-07T05:50:13;4.28;;;2.67;;
11222;SDS011;5668;52.012;8.724;2023-08-07T05:52:41;4.47;;;2.33;;
11222;SDS011;5668;52.012;8.724;2023-08-07T05:55:08;3.65;;;2.50;;
11222;SDS011;5668;52.012;8.724;2023-08-07T05:57:37;3.83;;;2.20;;
11222;SDS011;5668;52.012;8.724;2023-08-07T06:00:05;5.28;;;2.40;;
11222;SDS011;5668;52.012;8.724;2023-08-07T06:02:38;3.55;;;2.30;;
11222;SDS011;5668;52.012;8.724;2023-08-07T06:05:06;2.83;;;2.00;;
11222;SDS011;5668;52.012;8.724;2023-08-07T06:07:34;2.53;;;2.25;;
11222;SDS011;5668;52.012;8.724;2023-08-07T06:10:02;3.30;;;2.30;;
11222;SDS011;5668;52.012;8.724;2023-08-07T06:12:30;5.72;;;2.08;;
11222;SDS011;5668;52.012;8.724;2023-08-07T06:14:59;3.80;;;2.03;;
11222;SDS011;5668;52.012;8.724;2023-08-07T06:17:27;4.00;;;2.00;;
11222;SDS011;5668;52.012;8.724;2023-08-07T06:19:54;7.10;;;2.30;;
11222;SDS011;5668;52.012;8.724;2023-08-07T06:22:21;6.10;;;2.28;;
11222;SDS011;5668;52.012;8.724;2023-08-07T06:24:48;2.75;;;1.60;;
11222;SDS011;5668;52.012;8.724;2023-08-07T06:27:16;2.75;;;1.50;;
11222;SDS011;5668;52.012;8.724;2023-08-07T06:29:43;3.05;;;1.40;;
11222;SDS011;5668;52.012;8.724;2023-08-07T06:32:11;4.07;;;1.60;;
11222;SDS011;5668;52.012;8.724;2023-08-07T06:34:38;3.65;;;1.75;;
11222;SDS011;5668;52.012;8.724;2023-08-07T06:37:06;3.53;;;1.58;;
11222;SDS011;5668;52.012;8.724;2023-08-07T06:39:33;3.22;;;1.80;;
11222;SDS011;5668;52.012;8.724;2023-08-07T06:42:00;3.65;;;1.48;;
11222;SDS011;5668;52.012;8.724;2023-08-07T06:44:28;6.18;;;1.50;;
11222;SDS011;5668;52.012;8.724;2023-08-07T06:46:55;3.25;;;1.20;;
11222;SDS011;5668;52.012;8.724;2023-08-07T06:49:24;2.58;;;1.33;;
11222;SDS011;5668;52.012;8.724;2023-08-07T06:51:51;3.47;;;1.50;;
11222;SDS011;5668;52.012;8.724;2023-08-07T06:54:18;4.82;;;1.60;;
11222;SDS011;5668;52.012;8.724;2023-08-07T06:56:45;4.47;;;1.40;;
11222;SDS011;5668;52.012;8.724;2023-08-07T06:59:12;4.35;;;1.55;;
11222;SDS011;5668;52.012;8.724;2023-08-07T07:01:39;3.75;;;1.73;;
11222;SDS011;5668;52.012;8.724;2023-08-07T07:04:07;2.92;;;1.50;;
11222;SDS011;5668;52.012;8.724;2023-08-07T07:06:36;2.95;;;1.30;;
11222;SDS011;5668;52.012;8.724;2023-08-07T07:09:04;3.08;;;1.75;;
11222;SDS011;5668;52.012;8.724;2023-08-07T07:11:31;2.83;;;1.30;;
11222;SDS011;5668;52.012;8.724;2023-08-07T07:13:59;2.20;;;1.25;;
11222;SDS011;5668;52.012;8.724;2023-08-07T07:16:26;4.22;;;1.70;;
11222;SDS011;5668;52.012;8.724;2023-08-07T07:18:54;2.78;;;1.30;;
11222;SDS011;5668;52.012;8.724;2023-08-07T07:21:23;1.90;;;1.38;;
11222;SDS011;5668;52.012;8.724;2023-08-07T07:23:51;2.88;;;1.33;;
11222;SDS011;5668;52.012;8.724;2023-08-07T07:26:18;3.50;;;1.58;;
11222;SDS011;5668;52.012;8.724;2023-08-07T07:28:46;4.68;;;1.50;;
11222;SDS011;5668;52.012;8.724;2023-08-07T07:31:13;1.90;;;1.35;;
11222;SDS011;5668;52.012;8.724;2023-08-07T07:33:40;4.18;;;1.50;;
11222;SDS011;5668;52.012;8.724;2023-08-07T07:36:13;1.48;;;1.35;;
11222;SDS011;5668;52.012;8.724;2023-08-07T07:38:41;3.13;;;1.50;;
11222;SDS011;5668;52.012;8.724;2023-08-07T07:41:10;2.80;;;1.38;;
11222;SDS011;5668;52.012;8.724;2023-08-07T07:43:37;2.45;;;1.38;;
11222;SDS011;5668;52.012;8.724;2023-08-07T07:46:04;2.55;;;1.30;;
11222;SDS011;5668;52.012;8.724;2023-08-07T07:48:31;3.75;;;1.30;;
11222;SDS011;5668;52.012;8.724;2023-08-07T07:50:59;3.67;;;1.70;;
11222;SDS011;5668;52.012;8.724;2023-08-07T07:53:26;2.58;;;1.58;;
11222;SDS011;5668;52.012;8.724;2023-08-07T07:55:54;2.88;;;1.63;;
11222;SDS011;5668;52.012;8.724;2023-08-07T07:58:23;4.82;;;1.60;;
11222;SDS011;5668;52.012;8.724;2023-08-07T08:00:50;3.08;;;1.48;;
11222;SDS011;5668;52.012;8.724;2023-08-07T08:03:19;4.20;;;1.58;;
11222;SDS011;5668;52.012;8.724;2023-08-07T08:05:49;2.50;;;1.80;;
11222;SDS011;5668;52.012;8.724;2023-08-07T08:08:17;3.63;;;1.80;;
11222;SDS011;5668;52.012;8.724;2023-08-07T08:10:44;4.55;;;1.75;;
11222;SDS011;5668;52.012;8.724;2023-08-07T08:13:12;3.30;;;1.63;;
11222;SDS011;5668;52.012;8.724;2023-08-07T08:15:41;5.65;;;1.77;;
11222;SDS011;5668;52.012;8.724;2023-08-07T08:18:08;3.00;;;1.70;;
11222;SDS011;5668;52.012;8.724;2023-08-07T08:20:36;3.28;;;1.58;;
11222;SDS011;5668;52.012;8.724;2023-08-07T08:23:03;2.00;;;1.55;;
11222;SDS011;5668;52.012;8.724;2023-08-07T08:25:30;3.20;;;1.60;;
11222;SDS011;5668;52.012;8.724;2023-08-07T08:27:58;3.17;;;1.30;;
11222;SDS011;5668;52.012;8.724;2023-08-07T08:30:25;2.03;;;1.38;;
11222;SDS011;5668;52.012;8.724;2023-08-07T08:32:54;3.45;;;1.52;;
11222;SDS011;5668;52.012;8.724;2023-08-07T08:35:21;2.33;;;1.48;;
11222;SDS011;5668;52.012;8.724;2023-08-07T08:37:48;2.40;;;1.52;;
11222;SDS011;5668;52.012;8.724;2023-08-07T08:40:16;3.70;;;1.73;;
11222;SDS011;5668;52.012;8.724;2023-08-07T08:42:44;2.35;;;1.75;;
11222;SDS011;5668;52.012;8.724;2023-08-07T08:45:13;1.90;;;1.73;;
11222;SDS011;5668;52.012;8.724;2023-08-07T08:47:41;6.57;;;2.08;;
11222;SDS011;5668;52.012;8.724;2023-08-07T08:50:13;3.50;;;2.25;;
11222;SDS011;5668;52.012;8.724;2023-08-07T08:52:43;3.53;;;1.80;;
11222;SDS011;5668;52.012;8.724;2023-08-07T08:55:12;3.47;;;2.35;;
11222;SDS011;5668;52.012;8.724;2023-08-07T08:57:40;5.25;;;2.25;;
11222;SDS011;5668;52.012;8.724;2023-08-07T09:00:08;6.85;;;2.15;;
11222;SDS011;5668;52.012;8.724;2023-08-07T09:02:43;5.38;;;2.47;;
11222;SDS011;5668;52.012;8.724;2023-08-07T09:05:13;5.03;;;2.53;;
11222;SDS011;5668;52.012;8.724;2023-08-07T09:07:41;6.20;;;2.50;;
11222;SDS011;5668;52.012;8.724;2023-08-07T09:10:11;4.90;;;2.22;;
11222;SDS011;5668;52.012;8.724;2023-08-07T09:12:40;4.47;;;2.38;;
11222;SDS011;5668;52.012;8.724;2023-08-07T09:15:11;5.32;;;2.30;;
11222;SDS011;5668;52.012;8.724;2023-08-07T09:17:41;6.43;;;1.95;;
11222;SDS011;5668;52.012;8.724;2023-08-07T09:20:13;4.97;;;2.30;;
11222;SDS011;5668;52.012;8.724;2023-08-07T09:22:41;4.68;;;2.17;;
11222;SDS011;5668;52.012;8.724;2023-08-07T09:25:08;5.43;;;2.10;;
11222;SDS011;5668;52.012;8.724;2023-08-07T09:27:36;6.32;;;2.28;;
11222;SDS011;5668;52.012;8.724;2023-08-07T09:30:04;4.32;;;1.95;;
11222;SDS011;5668;52.012;8.724;2023-08-07T09:32:34;4.63;;;2.38;;
11222;SDS011;5668;52.012;8.724;2023-08-07T09:35:03;4.63;;;2.20;;
11222;SDS011;5668;52.012;8.724;2023-08-07T09:37:33;6.05;;;2.20;;
11222;SDS011;5668;52.012;8.724;2023-08-07T09:40:04;5.32;;;2.22;;
11222;SDS011;5668;52.012;8.724;2023-08-07T09:42:36;6.47;;;2.00;;
11222;SDS011;5668;52.012;8.724;2023-08-07T09:45:03;4.97;;;1.83;;
11222;SDS011;5668;52.012;8.724;2023-08-07T09:47:46;6.28;;;2.40;;
11222;SDS011;5668;52.012;8.724;2023-08-07T09:50:22;4.72;;;2.03;;
11222;SDS011;5668;52.012;8.724;2023-08-07T09:52:51;3.55;;;1.60;;
11222;SDS011;5668;52.012;8.724;2023-08-07T09:55:18;5.07;;;1.90;;
11222;SDS011;5668;52.012;8.724;2023-08-07T09:57:45;2.85;;;1.35;;
11222;SDS011;5668;52.012;8.724;2023-08-07T10:00:13;3.22;;;1.73;;
11222;SDS011;5668;52.012;8.724;2023-08-07T10:02:41;3.67;;;1.40;;
11222;SDS011;5668;52.012;8.724;2023-08-07T10:05:09;5.85;;;2.20;;
11222;SDS011;5668;52.012;8.724;2023-08-07T10:07:38;4.70;;;1.92;;
11222;SDS011;5668;52.012;8.724;2023-08-07T10:10:09;4.57;;;2.20;;
11222;SDS011;5668;52.012;8.724;2023-08-07T10:12:38;2.35;;;1.48;;
11222;SDS011;5668;52.012;8.724;2023-08-07T10:15:05;3.38;;;1.65;;
11222;SDS011;5668;52.012;8.724;2023-08-07T10:17:33;3.15;;;1.50;;
11222;SDS011;5668;52.012;8.724;2023-08-07T10:20:01;3.92;;;1.60;;
11222;SDS011;5668;52.012;8.724;2023-08-07T10:22:30;3.20;;;1.63;;
11222;SDS011;5668;52.012;8.724;2023-08-07T10:24:59;6.38;;;1.80;;
11222;SDS011;5668;52.012;8.724;2023-08-07T10:27:30;4.60;;;2.08;;
11222;SDS011;5668;52.012;8.724;2023-08-07T10:30:02;5.10;;;1.80;;
11222;SDS011;5668;52.012;8.724;2023-08-07T10:32:32;4.28;;;1.90;;
11222;SDS011;5668;52.012;8.724;2023-08-07T10:35:02;5.53;;;1.60;;
11222;SDS011;5668;52.012;8.724;2023-08-07T10:37:40;3.58;;;1.55;;
11222;SDS011;5668;52.012;8.724;2023-08-07T10:40:09;4.63;;;1.50;;
11222;SDS011;5668;52.012;8.724;2023-08-07T10:42:58;2.22;;;1.30;;
11222;SDS011;5668;52.012;8.724;2023-08-07T10:45:37;3.75;;;1.73;;
11222;SDS011;5668;52.012;8.724;2023-08-07T10:48:05;5.70;;;1.95;;
11222;SDS011;5668;52.012;8.724;2023-08-07T10:50:34;2.60;;;1.38;;
11222;SDS011;5668;52.012;8.724;2023-08-07T10:53:18;1.52;;;1.10;;
11222;SDS011;5668;52.012;8.724;2023-08-07T10:55:47;2.20;;;1.20;;
11222;SDS011;5668;52.012;8.724;2023-08-07T10:58:22;1.83;;;0.90;;
11222;SDS011;5668;52.012;8.724;2023-08-07T11:00:50;1.98;;;0.90;;
11222;SDS011;5668;52.012;8.724;2023-08-07T11:06:06;2.35;;;1.20;;
11222;SDS011;5668;52.012;8.724;2023-08-07T11:08:35;2.17;;;1.33;;
11222;SDS011;5668;52.012;8.724;2023-08-07T11:11:03;3.38;;;1.20;;
11222;SDS011;5668;52.012;8.724;2023-08-07T11:13:32;2.13;;;1.40;;
11222;SDS011;5668;52.012;8.724;2023-08-07T11:16:00;3.50;;;1.55;;
11222;SDS011;5668;52.012;8.724;2023-08-07T11:18:28;3.92;;;1.40;;
11222;SDS011;5668;52.012;8.724;2023-08-07T11:20:56;7.07;;;1.65;;
11222;SDS011;5668;52.012;8.724;2023-08-07T11:23:24;5.82;;;1.52;;
11222;SDS011;5668;52.012;8.724;2023-08-07T11:25:52;1.92;;;1.20;;
11222;SDS011;5668;52.012;8.724;2023-08-07T11:28:20;4.63;;;1.50;;
11222;SDS011;5668;52.012;8.724;2023-08-07T11:30:50;5.30;;;1.70;;
11222;SDS011;5668;52.012;8.724;2023-08-07T11:33:19;5.07;;;1.83;;
11222;SDS011;5668;52.012;8.724;2023-08-07T11:35:47;4.00;;;1.80;;
11222;SDS011;5668;52.012;8.724;2023-08-07T11:38:17;5.50;;;2.03;;
11222;SDS011;5668;52.012;8.724;2023-08-07T11:40:56;4.10;;;2.00;;
11222;SDS011;5668;52.012;8.724;2023-08-07T11:43:26;4.95;;;2.13;;
11222;SDS011;5668;52.012;8.724;2023-08-07T11:45:56;3.58;;;2.05;;
11222;SDS011;5668;52.012;8.724;2023-08-07T11:48:24;4.43;;;2.13;;
11222;SDS011;5668;52.012;8.724;2023-08-07T11:50:52;4.90;;;2.35;;
11222;SDS011;5668;52.012;8.724;2023-08-07T11:53:20;3.15;;;2.15;;
11222;SDS011;5668;52.012;8.724;2023-08-07T11:55:51;5.22;;;2.08;;
11222;SDS011;5668;52.012;8.724;2023-08-07T11:58:19;6.55;;;2.20;;
11222;SDS011;5668;52.012;8.724;2023-08-07T12:00:47;7.55;;;2.13;;
11222;SDS011;5668;52.012;8.724;2023-08-07T12:03:26;6.57;;;2.40;;
11222;SDS011;5668;52.012;8.724;2023-08-07T12:05:55;4.35;;;2.35;;
11222;SDS011;5668;52.012;8.724;2023-08-07T12:08:24;5.88;;;2.20;;
11222;SDS011;5668;52.012;8.724;2023-08-07T12:10:56;4.55;;;2.20;;
11222;SDS011;5668;52.012;8.724;2023-08-07T12:13:24;8.80;;;2.70;;
11222;SDS011;5668;52.012;8.724;2023-08-07T12:15:53;5.82;;;2.83;;
11222;SDS011;5668;52.012;8.724;2023-08-07T12:18:21;4.43;;;2.08;;
11222;SDS011;5668;52.012;8.724;2023-08-07T12:20:50;4.28;;;2.17;;
11222;SDS011;5668;52.012;8.724;2023-08-07T12:23:19;3.92;;;2.20;;
11222;SDS011;5668;52.012;8.724;2023-08-07T12:25:47;6.18;;;2.45;;
11222;SDS011;5668;52.012;8.724;2023-08-07T12:28:15;3.67;;;2.22;;
11222;SDS011;5668;52.012;8.724;2023-08-07T12:30:44;6.97;;;2.55;;
11222;SDS011;5668;52.012;8.724;2023-08-07T12:33:12;5.55;;;2.33;;
11222;SDS011;5668;52.012;8.724;2023-08-07T12:35:40;5.47;;;2.20;;
11222;SDS011;5668;52.012;8.724;2023-08-07T12:38:09;6.38;;;2.38;;
11222;SDS011;5668;52.012;8.724;2023-08-07T12:40:38;4.75;;;2.22;;
11222;SDS011;5668;52.012;8.724;2023-08-07T12:43:06;5.97;;;2.03;;
11222;SDS011;5668;52.012;8.724;2023-08-07T12:45:34;6.90;;;2.28;;
11222;SDS011;5668;52.012;8.724;2023-08-07T12:48:01;6.15;;;1.95;;
11222;SDS011;5668;52.012;8.724;2023-08-07T12:50:28;7.53;;;2.20;;
11222;SDS011;5668;52.012;8.724;2023-08-07T12:52:56;4.90;;;2.00;;
11222;SDS011;5668;52.012;8.724;2023-08-07T12:55:25;6.57;;;2.80;;
11222;SDS011;5668;52.012;8.724;2023-08-07T12:57:53;6.53;;;2.00;;
11222;SDS011;5668;52.012;8.724;2023-08-07T13:00:21;4.38;;;2.40;;
11222;SDS011;5668;52.012;8.724;2023-08-07T13:02:49;5.90;;;2.35;;
11222;SDS011;5668;52.012;8.724;2023-08-07T13:05:17;4.95;;;2.10;;
11222;SDS011;5668;52.012;8.724;2023-08-07T13:07:46;4.28;;;2.08;;
11222;SDS011;5668;52.012;8.724;2023-08-07T13:10:14;4.50;;;2.00;;
11222;SDS011;5668;52.012;8.724;2023-08-07T13:12:45;5.97;;;2.00;;
11222;SDS011;5668;52.012;8.724;2023-08-07T13:15:14;4.28;;;1.95;;
11222;SDS011;5668;52.012;8.724;2023-08-07T13:17:43;4.63;;;1.83;;
11222;SDS011;5668;52.012;8.724;2023-08-07T13:20:11;5.13;;;1.88;;
11222;SDS011;5668;52.012;8.724;2023-08-07T13:22:40;7.38;;;1.80;;
11222;SDS011;5668;52.012;8.724;2023-08-07T13:25:08;5.63;;;2.08;;
11222;SDS011;5668;52.012;8.724;2023-08-07T13:27:36;4.28;;;1.88;;
11222;SDS011;5668;52.012;8.724;2023-08-07T13:30:06;3.38;;;1.63;;
11222;SDS011;5668;52.012;8.724;2023-08-07T13:32:35;7.72;;;2.30;;
11222;SDS011;5668;52.012;8.724;2023-08-07T13:35:03;3.25;;;2.00;;
11222;SDS011;5668;52.012;8.724;2023-08-07T13:37:31;5.82;;;2.00;;
11222;SDS011;5668;52.012;8.724;2023-08-07T13:39:58;6.35;;;1.80;;
11222;SDS011;5668;52.012;8.724;2023-08-07T13:42:25;3.85;;;1.90;;
11222;SDS011;5668;52.012;8.724;2023-08-07T13:44:53;4.28;;;2.05;;
11222;SDS011;5668;52.012;8.724;2023-08-07T13:47:22;6.25;;;2.40;;
11222;SDS011;5668;52.012;8.724;2023-08-07T13:49:50;4.20;;;1.63;;
11222;SDS011;5668;52.012;8.724;2023-08-07T13:52:18;4.97;;;2.05;;
11222;SDS011;5668;52.012;8.724;2023-08-07T13:54:46;5.88;;;2.17;;
11222;SDS011;5668;52.012;8.724;2023-08-07T13:57:13;3.20;;;1.70;;
11222;SDS011;5668;52.012;8.724;2023-08-07T13:59:40;2.92;;;1.60;;
11222;SDS011;5668;52.012;8.724;2023-08-07T14:02:08;6.10;;;2.10;;
11222;SDS011;5668;52.012;8.724;2023-08-07T14:04:37;2.47;;;1.80;;
11222;SDS011;5668;52.012;8.724;2023-08-07T14:07:04;3.60;;;1.70;;
11222;SDS011;5668;52.012;8.724;2023-08-07T14:09:32;4.25;;;2.03;;
11222;SDS011;5668;52.012;8.724;2023-08-07T14:11:59;4.10;;;1.83;;
11222;SDS011;5668;52.012;8.724;2023-08-07T14:14:26;5.90;;;2.10;;
11222;SDS011;5668;52.012;8.724;2023-08-07T14:16:53;3.13;;;1.70;;
11222;SDS011;5668;52.012;8.724;2023-08-07T14:19:25;5.45;;;1.90;;
11222;SDS011;5668;52.012;8.724;2023-08-07T14:21:54;2.78;;;1.77;;
11222;SDS011;5668;52.012;8.724;2023-08-07T14:24:21;4.85;;;1.85;;
11222;SDS011;5668;52.012;8.724;2023-08-07T14:26:48;4.13;;;1.70;;
11222;SDS011;5668;52.012;8.724;2023-08-07T14:29:15;5.80;;;1.90;;
11222;SDS011;5668;52.012;8.724;2023-08-07T14:31:42;4.50;;;1.98;;
11222;SDS011;5668;52.012;8.724;2023-08-07T14:34:10;3.60;;;1.67;;
11222;SDS011;5668;52.012;8.724;2023-08-07T14:36:37;2.42;;;1.60;;
11222;SDS011;5668;52.012;8.724;2023-08-07T14:39:06;5.05;;;1.50;;
11222;SDS011;5668;52.012;8.724;2023-08-07T14:41:34;4.65;;;1.67;;
11222;SDS011;5668;52.012;8.724;2023-08-07T14:44:01;5.30;;;1.90;;
11222;SDS011;5668;52.012;8.724;2023-08-07T14:46:28;5.72;;;1.90;;
11222;SDS011;5668;52.012;8.724;2023-08-07T14:48:55;2.83;;;1.67;;
11222;SDS011;5668;52.012;8.724;2023-08-07T14:51:22;5.05;;;1.60;;
11222;SDS011;5668;52.012;8.724;2023-08-07T14:53:50;4.45;;;1.95;;
11222;SDS011;5668;52.012;8.724;2023-08-07T14:56:18;4.53;;;1.95;;
11222;SDS011;5668;52.012;8.724;2023-08-07T14:58:46;4.13;;;1.80;;
11222;SDS011;5668;52.012;8.724;2023-08-07T15:01:13;5.03;;;1.80;;
11222;SDS011;5668;52.012;8.724;2023-08-07T15:03:40;3.88;;;1.80;;
11222;SDS011;5668;52.012;8.724;2023-08-07T15:06:07;3.22;;;1.90;;
11222;SDS011;5668;52.012;8.724;2023-08-07T15:08:34;4.38;;;1.65;;
11222;SDS011;5668;52.012;8.724;2023-08-07T15:11:02;3.40;;;1.60;;
11222;SDS011;5668;52.012;8.724;2023-08-07T15:13:30;3.88;;;1.60;;
11222;SDS011;5668;52.012;8.724;2023-08-07T15:15:58;3.20;;;1.77;;